Time;durP1;ratioP1;P1;durP2;ratioP2;P2;SDS_P1;SDS_P2;PMS_P1;PMS_P2;Temp;Humidity;BMP_temperature;BMP_pressure;BME280_temperature;BME280_humidity;BME280_pressure;Samples;Min_cycle;Max_cycle;Signal;HPM_P1;HPM_P2
2022/10/01 00:02:12;;;;;;;8.17;5.60;;;5.80;99.90;;;;;;4978259;28;20205;-68
2022/10/01 00:04:42;;;;;;;6.47;5.00;;;5.70;99.90;;;;;;4995592;28;20256;-68
2022/10/01 00:07:13;;;;;;;6.07;5.07;;;5.70;99.90;;;;;;4995418;28;20578;-68
2022/10/01 00:09:43;;;;;;;7.60;6.00;;;5.70;99.90;;;;;;4995689;28;20193;-68
2022/10/01 00:12:14;;;;;;;8.53;5.73;;;5.70;99.90;;;;;;4995681;28;20677;-69
2022/10/01 00:14:43;;;;;;;5.80;4.43;;;5.70;99.90;;;;;;4978166;28;20225;-69
2022/10/01 00:17:12;;;;;;;4.97;4.40;;;5.70;99.90;;;;;;4995751;28;20222;-69
2022/10/01 00:19:42;;;;;;;5.10;4.30;;;5.70;99.90;;;;;;4995683;28;20210;-68
2022/10/01 00:22:11;;;;;;;5.60;4.93;;;5.70;99.90;;;;;;4995517;28;20194;-68
2022/10/01 00:24:40;;;;;;;8.67;5.03;;;5.70;99.90;;;;;;4977857;28;20226;-69
2022/10/01 00:27:11;;;;;;;8.13;4.60;;;5.70;99.90;;;;;;4995395;28;20196;-68
2022/10/01 00:29:43;;;;;;;8.00;6.00;;;5.70;99.90;;;;;;4978052;28;20182;-69
2022/10/01 00:32:12;;;;;;;9.77;6.13;;;5.70;99.90;;;;;;4977896;28;20209;-69
2022/10/01 00:34:41;;;;;;;7.70;5.90;;;5.80;99.90;;;;;;4995201;28;20218;-68
2022/10/01 00:37:11;;;;;;;10.77;6.23;;;5.80;99.90;;;;;;4995237;28;20209;-68
2022/10/01 00:39:40;;;;;;;9.27;6.10;;;5.80;99.90;;;;;;4995166;28;20194;-69
2022/10/01 00:42:17;;;;;;;8.17;5.73;;;6.00;99.90;;;;;;4977509;28;20210;-69
2022/10/01 00:44:46;;;;;;;12.13;6.07;;;6.00;99.90;;;;;;4994722;28;20233;-68
2022/10/01 00:47:24;;;;;;;9.43;5.60;;;6.00;99.90;;;;;;4994772;28;20569;-70
2022/10/01 00:49:57;;;;;;;8.50;5.77;;;6.00;99.90;;;;;;4994843;28;20540;-69
2022/10/01 00:52:32;;;;;;;9.73;7.10;;;6.00;99.90;;;;;;4994763;28;20575;-69
2022/10/01 00:55:06;;;;;;;7.90;6.40;;;6.00;99.90;;;;;;4993983;28;20228;-69
2022/10/01 00:57:35;;;;;;;8.70;6.03;;;6.10;99.90;;;;;;4993933;28;20206;-69
2022/10/01 01:00:07;;;;;;;10.37;6.90;;;6.10;99.90;;;;;;4993622;28;20663;-68
2022/10/01 01:02:36;;;;;;;11.40;7.77;;;6.10;99.90;;;;;;4994574;28;20201;-68
2022/10/01 01:05:07;;;;;;;12.43;7.40;;;6.20;99.90;;;;;;4976981;28;20225;-69
2022/10/01 01:07:38;;;;;;;10.80;6.97;;;6.20;99.90;;;;;;4994428;28;20182;-67
2022/10/01 01:10:08;;;;;;;10.27;7.10;;;6.20;99.90;;;;;;4994406;28;20193;-68
2022/10/01 01:12:53;;;;;;;10.57;7.07;;;6.20;99.90;;;;;;4994286;28;20194;-69
2022/10/01 01:15:31;;;;;;;9.30;6.87;;;6.20;99.90;;;;;;4994240;28;20217;-69
2022/10/01 01:18:08;;;;;;;11.23;7.37;;;6.20;99.90;;;;;;4994293;28;20669;-69
2022/10/01 01:20:50;;;;;;;10.07;7.03;;;6.20;99.90;;;;;;4994145;28;20657;-70
2022/10/01 01:24:01;;;;;;;11.83;7.37;;;6.20;99.90;;;;;;4994146;28;20213;-69
2022/10/01 01:26:42;;;;;;;11.63;7.87;;;6.20;99.90;;;;;;4964106;28;20608;-68
2022/10/01 01:29:19;;;;;;;9.50;7.10;;;6.20;99.90;;;;;;4974690;28;20532;-69
2022/10/01 01:31:49;;;;;;;12.93;7.90;;;6.30;99.90;;;;;;4983853;28;20197;-69
2022/10/01 01:34:23;;;;;;;9.53;7.57;;;6.30;99.90;;;;;;4993699;28;20256;-69
2022/10/01 01:36:57;;;;;;;10.40;7.30;;;6.30;99.90;;;;;;4993992;28;20204;-68
2022/10/01 01:39:31;;;;;;;11.33;7.33;;;6.20;99.90;;;;;;4993082;28;20221;-68
2022/10/01 01:42:05;;;;;;;11.77;8.17;;;6.20;99.90;;;;;;4993786;28;20209;-69
2022/10/01 01:44:39;;;;;;;12.07;8.60;;;6.20;99.90;;;;;;4993574;28;20601;-68
2022/10/01 01:47:10;;;;;;;13.67;8.50;;;6.30;99.90;;;;;;4992972;28;20595;-69
2022/10/01 01:49:39;;;;;;;12.90;8.43;;;6.20;99.90;;;;;;4993667;28;20258;-69
2022/10/01 01:52:12;;;;;;;12.40;8.23;;;6.20;99.90;;;;;;4993601;28;20201;-68
2022/10/01 01:54:43;;;;;;;9.67;7.80;;;6.10;99.90;;;;;;4993552;28;20302;-67
2022/10/01 01:57:13;;;;;;;11.23;8.40;;;6.10;99.90;;;;;;4993588;28;20193;-67
2022/10/01 01:59:43;;;;;;;11.60;8.47;;;6.00;99.90;;;;;;4993557;28;20202;-69
2022/10/01 02:02:13;;;;;;;10.77;8.23;;;6.00;99.90;;;;;;4993579;28;20204;-68
2022/10/01 02:04:46;;;;;;;12.13;8.10;;;6.00;99.90;;;;;;4993152;28;20229;-69
2022/10/01 02:07:37;;;;;;;11.17;8.77;;;6.00;99.90;;;;;;4992411;28;20237;-69
2022/10/01 02:10:17;;;;;;;10.27;7.93;;;5.90;99.90;;;;;;4984508;28;20202;-69
2022/10/01 02:13:02;;;;;;;11.17;7.53;;;5.90;99.90;;;;;;4993252;28;20213;-69
2022/10/01 02:15:41;;;;;;;11.57;7.47;;;5.90;99.90;;;;;;4993187;28;20229;-68
2022/10/01 02:18:15;;;;;;;11.83;8.17;;;5.80;99.90;;;;;;4993255;28;20196;-68
2022/10/01 02:20:50;;;;;;;16.00;9.03;;;5.90;99.90;;;;;;4993104;28;20218;-69
2022/10/01 02:23:22;;;;;;;11.70;9.20;;;5.90;99.90;;;;;;4993044;28;20570;-68
2022/10/01 02:25:58;;;;;;;12.30;9.40;;;6.00;99.90;;;;;;4975247;28;20236;-68
2022/10/01 02:28:28;;;;;;;15.43;10.00;;;6.10;99.90;;;;;;4992499;28;20666;-68
2022/10/01 02:31:01;;;;;;;15.97;10.37;;;6.00;99.90;;;;;;4992406;28;20235;-68
2022/10/01 02:33:34;;;;;;;12.07;8.80;;;6.00;99.90;;;;;;4993305;28;20186;-68
2022/10/01 02:36:06;;;;;;;11.83;8.57;;;5.90;99.90;;;;;;4993026;28;20210;-68
2022/10/01 02:38:37;;;;;;;14.33;10.90;;;6.00;99.90;;;;;;4992989;28;20201;-71
2022/10/01 02:41:10;;;;;;;12.83;8.90;;;6.00;99.90;;;;;;4992963;28;20201;-69
2022/10/01 02:43:43;;;;;;;13.63;9.63;;;5.90;99.90;;;;;;4992582;28;20206;-70
2022/10/01 02:46:20;;;;;;;13.33;10.07;;;5.90;99.90;;;;;;4993028;28;20226;-67
2022/10/01 02:48:50;;;;;;;13.50;9.97;;;5.90;99.90;;;;;;4994108;28;20209;-68
2022/10/01 02:51:28;;;;;;;14.33;10.47;;;5.90;99.90;;;;;;4992816;28;20665;-69
2022/10/01 02:54:01;;;;;;;14.23;10.37;;;5.80;99.90;;;;;;4992391;28;20206;-68
2022/10/01 02:59:22;;;;;;;12.67;9.50;;;5.80;99.90;;;;;;4993084;28;20178;-68
2022/10/01 03:01:52;;;;;;;11.30;8.07;;;5.80;99.90;;;;;;4992697;28;20658;-69
2022/10/01 03:04:21;;;;;;;14.17;9.33;;;5.80;99.90;;;;;;4993054;28;20201;-68
2022/10/01 03:06:50;;;;;;;14.30;8.77;;;5.90;99.90;;;;;;4992857;28;20702;-68
2022/10/01 03:09:18;;;;;;;15.63;9.93;;;5.80;99.90;;;;;;4992588;28;20593;-69
2022/10/01 03:11:47;;;;;;;14.00;10.27;;;5.90;99.90;;;;;;4992696;28;20356;-68
2022/10/01 03:14:16;;;;;;;14.47;10.37;;;5.90;99.90;;;;;;4992645;28;20205;-68
2022/10/01 03:16:44;;;;;;;14.60;11.20;;;5.90;99.90;;;;;;4993217;28;20202;-70
2022/10/01 03:19:15;;;;;;;16.00;10.50;;;5.90;99.90;;;;;;4996544;28;20549;-68
2022/10/01 03:21:43;;;;;;;14.47;10.60;;;5.90;99.90;;;;;;4996543;28;20196;-68
2022/10/01 03:24:12;;;;;;;16.10;11.60;;;5.90;99.90;;;;;;4996312;28;20213;-69
2022/10/01 03:26:41;;;;;;;16.03;11.53;;;5.90;99.90;;;;;;4996404;28;20218;-69
2022/10/01 03:29:10;;;;;;;14.30;10.50;;;5.90;99.90;;;;;;4996239;28;20688;-69
2022/10/01 03:31:38;;;;;;;15.87;10.53;;;5.90;99.90;;;;;;4996480;28;20198;-67
2022/10/01 03:34:07;;;;;;;15.70;11.33;;;5.90;99.90;;;;;;4996306;28;20296;-69
2022/10/01 03:36:37;;;;;;;16.33;10.63;;;6.00;99.90;;;;;;4996335;28;20709;-69
2022/10/01 03:39:06;;;;;;;14.77;10.53;;;6.00;99.90;;;;;;4996494;28;20197;-70
2022/10/01 03:41:35;;;;;;;15.97;11.70;;;6.00;99.90;;;;;;4996123;28;20202;-68
2022/10/01 03:44:04;;;;;;;13.37;9.90;;;6.00;99.90;;;;;;4996011;28;20194;-69
2022/10/01 03:46:33;;;;;;;13.77;10.30;;;6.00;99.90;;;;;;4995901;28;20588;-69
2022/10/01 03:49:02;;;;;;;21.07;13.83;;;6.10;99.90;;;;;;4995986;28;20283;-70
2022/10/01 03:51:32;;;;;;;26.20;15.73;;;6.10;99.90;;;;;;4995896;28;20217;-69
2022/10/01 03:54:03;;;;;;;19.67;13.57;;;6.20;99.90;;;;;;4995921;28;20646;-67
2022/10/01 03:56:32;;;;;;;26.47;14.47;;;6.20;99.90;;;;;;4995398;28;20230;-69
2022/10/01 03:59:00;;;;;;;28.93;15.80;;;6.30;99.90;;;;;;4978434;28;20225;-69
2022/10/01 04:01:29;;;;;;;25.03;15.40;;;6.30;99.90;;;;;;4995703;28;20552;-68
2022/10/01 04:03:58;;;;;;;24.30;15.23;;;6.40;99.90;;;;;;4995634;28;20574;-69
2022/10/01 04:06:27;;;;;;;23.50;14.70;;;6.40;99.90;;;;;;4995558;28;20210;-69
2022/10/01 04:08:56;;;;;;;24.13;16.70;;;6.40;99.90;;;;;;4995714;28;20197;-69
2022/10/01 04:11:26;;;;;;;26.10;16.80;;;6.50;99.90;;;;;;4995648;28;20197;-68
2022/10/01 04:13:56;;;;;;;25.10;16.30;;;6.50;99.90;;;;;;4995640;28;20595;-69
2022/10/01 04:16:25;;;;;;;19.57;13.80;;;6.60;99.90;;;;;;4995433;28;20221;-68
2022/10/01 04:18:54;;;;;;;21.67;13.10;;;6.60;99.90;;;;;;4995436;28;20202;-68
2022/10/01 04:21:23;;;;;;;19.50;13.37;;;6.60;99.90;;;;;;4995445;28;20201;-69
2022/10/01 04:23:52;;;;;;;20.80;14.53;;;6.60;99.90;;;;;;4995209;28;20213;-69
2022/10/01 04:26:20;;;;;;;25.30;16.33;;;6.60;99.90;;;;;;4995167;28;20570;-69
2022/10/01 04:28:50;;;;;;;30.40;19.60;;;6.50;99.90;;;;;;4993985;28;20236;-69
2022/10/01 04:31:25;;;;;;;41.40;24.27;;;6.60;99.90;;;;;;4995116;28;20186;-68
2022/10/01 04:33:55;;;;;;;60.27;36.43;;;6.60;99.90;;;;;;4995208;28;20186;-68
2022/10/01 04:36:25;;;;;;;51.10;29.30;;;6.60;99.90;;;;;;4995057;28;20218;-69
2022/10/01 04:38:55;;;;;;;33.53;22.10;;;6.60;99.90;;;;;;4995011;28;20205;-68
2022/10/01 04:41:30;;;;;;;22.47;15.87;;;6.60;99.90;;;;;;4995019;28;20196;-69
2022/10/01 04:44:01;;;;;;;19.47;14.50;;;6.50;99.90;;;;;;4995195;28;20568;-69
2022/10/01 04:46:30;;;;;;;18.80;13.50;;;6.50;99.90;;;;;;4994845;28;20222;-69
2022/10/01 04:48:58;;;;;;;22.90;14.60;;;6.50;99.90;;;;;;4994255;28;20686;-68
2022/10/01 04:51:27;;;;;;;26.00;16.53;;;6.50;99.90;;;;;;4994763;28;20571;-70
2022/10/01 04:53:55;;;;;;;25.17;16.33;;;6.50;99.90;;;;;;4994828;28;20209;-68
2022/10/01 04:56:24;;;;;;;25.60;17.53;;;6.50;99.90;;;;;;4994714;28;20583;-69
2022/10/01 04:58:53;;;;;;;23.50;16.40;;;6.60;99.90;;;;;;4994778;28;20568;-69
2022/10/01 05:01:23;;;;;;;18.93;12.83;;;6.50;99.90;;;;;;4977316;28;20190;-70
2022/10/01 05:03:52;;;;;;;25.17;14.87;;;6.50;99.90;;;;;;4994641;28;20190;-70
2022/10/01 05:06:21;;;;;;;21.53;14.40;;;6.50;99.90;;;;;;4994405;28;20217;-70
2022/10/01 05:08:51;;;;;;;20.07;14.57;;;6.50;99.90;;;;;;4994420;28;20218;-69
2022/10/01 05:11:19;;;;;;;19.60;12.47;;;6.50;99.90;;;;;;4994373;28;20194;-68
2022/10/01 05:13:48;;;;;;;18.37;12.57;;;6.50;99.90;;;;;;4994517;28;20198;-68
2022/10/01 05:16:17;;;;;;;19.00;13.33;;;6.50;99.90;;;;;;4993453;28;20226;-69
2022/10/01 05:18:47;;;;;;;18.67;12.60;;;6.50;99.90;;;;;;4994378;28;20771;-69
2022/10/01 05:21:15;;;;;;;21.77;12.63;;;6.50;99.90;;;;;;4994313;28;20271;-68
2022/10/01 05:23:44;;;;;;;21.73;13.30;;;6.50;99.90;;;;;;4994249;28;20217;-67
2022/10/01 05:26:13;;;;;;;21.93;13.63;;;6.50;99.90;;;;;;4994267;28;20221;-69
2022/10/01 05:28:43;;;;;;;18.80;12.93;;;6.40;99.90;;;;;;4994240;28;20232;-69
2022/10/01 05:31:12;;;;;;;18.70;13.07;;;6.40;99.90;;;;;;4993983;28;20205;-69
2022/10/01 05:33:41;;;;;;;19.60;13.70;;;6.40;99.90;;;;;;4994011;28;20190;-67
2022/10/01 05:36:11;;;;;;;19.00;13.80;;;6.40;99.90;;;;;;4976567;28;20590;-68
2022/10/01 05:38:41;;;;;;;21.43;12.60;;;6.40;99.90;;;;;;4993888;28;20205;-66
2022/10/01 05:41:09;;;;;;;18.43;13.23;;;6.40;99.90;;;;;;4993620;28;20231;-68
2022/10/01 05:43:38;;;;;;;22.00;14.23;;;6.40;99.90;;;;;;4993742;28;20216;-69
2022/10/01 05:46:09;;;;;;;21.87;14.10;;;6.40;99.90;;;;;;4992959;28;20229;-70
2022/10/01 05:48:37;;;;;;;20.67;13.50;;;6.40;99.90;;;;;;4993736;28;20608;-68
2022/10/01 05:51:07;;;;;;;20.23;12.93;;;6.40;99.90;;;;;;4993709;28;20650;-68
2022/10/01 05:53:37;;;;;;;20.23;13.90;;;6.40;99.90;;;;;;4993687;28;20217;-67
2022/10/01 05:56:07;;;;;;;18.87;13.67;;;6.40;99.90;;;;;;4993694;28;20592;-68
2022/10/01 05:58:35;;;;;;;20.37;14.23;;;6.50;99.90;;;;;;4993543;28;20213;-66
2022/10/01 06:01:04;;;;;;;19.73;14.07;;;6.50;99.90;;;;;;4993186;28;20205;-68
2022/10/01 06:03:33;;;;;;;21.73;14.37;;;6.50;99.90;;;;;;4993465;28;20560;-67
2022/10/01 06:06:04;;;;;;;20.57;14.60;;;6.60;99.90;;;;;;4993640;28;20590;-69
2022/10/01 06:08:34;;;;;;;23.67;15.37;;;6.60;99.90;;;;;;4993425;28;20210;-69
2022/10/01 06:11:04;;;;;;;19.73;13.97;;;6.60;99.90;;;;;;4993421;28;20198;-68
2022/10/01 06:13:35;;;;;;;23.10;15.17;;;6.70;99.90;;;;;;4976050;28;20220;-68
2022/10/01 06:16:04;;;;;;;21.97;16.27;;;6.80;99.90;;;;;;4993296;28;20214;-69
2022/10/01 06:18:32;;;;;;;22.27;14.43;;;6.90;99.90;;;;;;4993248;28;20209;-68
2022/10/01 06:21:01;;;;;;;23.20;16.10;;;6.90;99.90;;;;;;4975917;28;20197;-68
2022/10/01 06:23:30;;;;;;;25.67;16.43;;;6.90;99.90;;;;;;4993066;28;20212;-69
2022/10/01 06:26:00;;;;;;;21.50;14.93;;;7.00;99.90;;;;;;4993037;28;20214;-69
2022/10/01 06:28:30;;;;;;;22.43;14.90;;;7.10;99.90;;;;;;4993004;28;20218;-69
2022/10/01 06:31:01;;;;;;;24.83;16.93;;;7.10;99.90;;;;;;4993079;28;20194;-68
2022/10/01 06:33:30;;;;;;;26.80;19.00;;;7.20;99.90;;;;;;4993131;28;20194;-69
2022/10/01 06:35:59;;;;;;;27.50;19.00;;;7.20;99.90;;;;;;4993095;28;20209;-70
2022/10/01 06:38:27;;;;;;;28.20;19.50;;;7.30;99.90;;;;;;4992523;28;20214;-69
2022/10/01 06:40:58;;;;;;;23.60;16.03;;;7.30;99.90;;;;;;4975535;28;20662;-68
2022/10/01 06:43:28;;;;;;;22.47;14.43;;;7.40;99.90;;;;;;4993026;28;20186;-69
2022/10/01 06:46:02;;;;;;;21.97;14.10;;;7.40;99.90;;;;;;4992923;28;20214;-68
2022/10/01 06:48:31;;;;;;;22.00;14.33;;;7.50;99.90;;;;;;4975589;28;20189;-68
2022/10/01 06:51:00;;;;;;;18.20;12.37;;;7.50;99.90;;;;;;4975859;28;20221;-69
2022/10/01 06:53:28;;;;;;;17.73;13.40;;;7.60;99.90;;;;;;4996416;28;20205;-69
2022/10/01 06:55:57;;;;;;;17.97;13.53;;;7.70;99.90;;;;;;4996899;28;20700;-69
2022/10/01 06:58:26;;;;;;;18.70;13.30;;;7.70;99.90;;;;;;4996927;28;20200;-69
2022/10/01 07:01:00;;;;;;;19.17;12.87;;;7.80;99.90;;;;;;4996862;28;20201;-69
2022/10/01 07:03:30;;;;;;;18.20;13.50;;;7.90;99.90;;;;;;4996842;28;20189;-69
2022/10/01 07:06:04;;;;;;;18.97;13.07;;;7.90;99.90;;;;;;4996742;28;20685;-69
2022/10/01 07:08:32;;;;;;;19.03;12.17;;;7.90;99.90;;;;;;4996931;28;20182;-67
2022/10/01 07:11:02;;;;;;;17.43;12.13;;;8.00;99.90;;;;;;4979316;28;20194;-69
2022/10/01 07:13:31;;;;;;;18.73;12.00;;;8.00;99.90;;;;;;4996708;28;20220;-69
2022/10/01 07:16:02;;;;;;;20.17;12.93;;;8.10;99.90;;;;;;4996659;28;20216;-69
2022/10/01 07:18:31;;;;;;;17.97;11.93;;;8.10;99.90;;;;;;4996675;28;20189;-68
2022/10/01 07:21:00;;;;;;;17.40;12.03;;;8.20;99.90;;;;;;4995602;28;20220;-67
2022/10/01 07:23:29;;;;;;;16.43;11.23;;;8.20;99.90;;;;;;4996357;28;20206;-68
2022/10/01 07:25:57;;;;;;;14.50;10.60;;;8.10;99.90;;;;;;4996776;28;20217;-67
2022/10/01 07:28:26;;;;;;;17.00;11.23;;;8.30;99.90;;;;;;4996420;28;20198;-67
2022/10/01 07:31:02;;;;;;;13.17;10.40;;;8.30;99.90;;;;;;4978773;28;20697;-67
2022/10/01 07:33:31;;;;;;;15.47;11.27;;;8.30;99.90;;;;;;4996249;28;20194;-68
2022/10/01 07:36:01;;;;;;;15.30;11.37;;;8.40;99.90;;;;;;4996110;28;20210;-67
2022/10/01 07:38:29;;;;;;;16.17;12.13;;;8.40;99.90;;;;;;4996132;28;20194;-67
2022/10/01 07:40:58;;;;;;;16.37;12.20;;;8.40;99.90;;;;;;4996118;28;20193;-67
2022/10/01 07:43:27;;;;;;;17.20;13.03;;;8.40;99.90;;;;;;4996110;28;20201;-67
2022/10/01 07:45:56;;;;;;;30.57;20.47;;;8.40;99.90;;;;;;4995921;28;20226;-67
2022/10/01 07:48:27;;;;;;;22.90;15.70;;;8.50;99.90;;;;;;4996541;28;20194;-66
2022/10/01 07:50:56;;;;;;;24.87;17.23;;;8.60;99.90;;;;;;4996066;28;20205;-66
2022/10/01 07:53:26;;;;;;;21.17;13.67;;;8.60;99.90;;;;;;4995976;28;20562;-66
2022/10/01 07:55:55;;;;;;;22.40;15.37;;;8.40;99.90;;;;;;4995769;28;20229;-66
2022/10/01 07:58:25;;;;;;;21.10;13.87;;;8.40;99.90;;;;;;4995833;28;20202;-65
2022/10/01 08:00:57;;;;;;;20.30;14.63;;;8.30;99.90;;;;;;4978439;28;20577;-65
2022/10/01 08:03:27;;;;;;;17.07;13.00;;;8.30;99.90;;;;;;4995843;28;20193;-65
2022/10/01 08:05:57;;;;;;;22.43;15.73;;;8.20;99.90;;;;;;4995842;28;20214;-65
2022/10/01 08:08:25;;;;;;;20.97;15.03;;;8.20;99.90;;;;;;4995904;28;20202;-66
2022/10/01 08:10:54;;;;;;;21.93;14.97;;;8.10;99.90;;;;;;4995809;28;20229;-65
2022/10/01 08:13:24;;;;;;;23.23;15.17;;;8.10;99.90;;;;;;4995648;28;20204;-65
2022/10/01 08:15:53;;;;;;;19.07;14.50;;;8.10;99.90;;;;;;4978322;28;20221;-66
2022/10/01 08:18:23;;;;;;;21.73;14.67;;;8.20;99.90;;;;;;4995437;28;20204;-66
2022/10/01 08:20:53;;;;;;;24.33;16.03;;;8.00;99.90;;;;;;4995479;28;20198;-64
2022/10/01 08:23:22;;;;;;;23.93;15.37;;;8.00;99.90;;;;;;4994898;28;20662;-66
2022/10/01 08:25:51;;;;;;;25.60;15.60;;;8.00;99.90;;;;;;4978145;28;20218;-65
2022/10/01 08:28:20;;;;;;;24.63;15.37;;;8.00;99.90;;;;;;4995269;28;20193;-65
2022/10/01 08:30:48;;;;;;;23.67;15.37;;;8.10;99.90;;;;;;4995299;28;20234;-64
2022/10/01 08:33:17;;;;;;;27.47;17.20;;;8.10;99.90;;;;;;4995297;28;20190;-64
2022/10/01 08:35:46;;;;;;;23.87;15.37;;;8.10;99.90;;;;;;4978131;28;20230;-63
2022/10/01 08:38:18;;;;;;;26.77;16.13;;;8.10;99.90;;;;;;4995176;28;20190;-63
2022/10/01 08:40:49;;;;;;;22.80;15.87;;;8.10;99.90;;;;;;4995313;28;20190;-64
2022/10/01 08:43:31;;;;;;;25.30;15.43;;;8.00;99.90;;;;;;4977577;28;20213;-64
2022/10/01 08:46:02;;;;;;;25.20;15.67;;;8.10;99.90;;;;;;4995046;28;20214;-64
2022/10/01 08:48:47;;;;;;;23.27;15.47;;;8.10;99.90;;;;;;4994999;28;20194;-64
2022/10/01 08:51:29;;;;;;;23.83;14.67;;;8.20;99.90;;;;;;4994877;28;20220;-64
2022/10/01 08:54:04;;;;;;;27.90;15.83;;;8.20;99.90;;;;;;4994904;28;20186;-63
2022/10/01 08:56:37;;;;;;;26.43;15.67;;;8.20;99.90;;;;;;4994771;28;20581;-64
2022/10/01 08:59:19;;;;;;;27.50;15.87;;;8.20;99.90;;;;;;4994996;28;20186;-64
2022/10/01 09:01:54;;;;;;;23.10;14.80;;;8.20;99.90;;;;;;4994722;28;20194;-62
2022/10/01 09:04:24;;;;;;;34.23;20.03;;;8.20;99.90;;;;;;4993823;28;20704;-63
2022/10/01 09:07:00;;;;;;;28.57;16.80;;;8.20;99.90;;;;;;4994630;28;20581;-64
2022/10/01 09:09:39;;;;;;;28.03;17.07;;;8.20;99.90;;;;;;4994583;28;20674;-62
2022/10/01 09:12:19;;;;;;;24.80;15.37;;;8.20;99.90;;;;;;4994530;28;20213;-63
2022/10/01 09:15:04;;;;;;;27.73;15.97;;;8.30;99.90;;;;;;4993916;28;20217;-62
2022/10/01 09:17:48;;;;;;;24.00;15.27;;;8.30;99.90;;;;;;4994338;28;20639;-63
2022/10/01 09:20:23;;;;;;;26.87;16.53;;;8.20;99.90;;;;;;4994502;28;20742;-63
2022/10/01 09:23:06;;;;;;;26.10;16.17;;;8.30;99.90;;;;;;4976938;28;20657;-63
2022/10/01 09:25:38;;;;;;;31.00;17.40;;;8.30;99.90;;;;;;4994206;28;20221;-63
2022/10/01 09:28:13;;;;;;;27.07;16.53;;;8.30;99.90;;;;;;4976849;28;20209;-63
2022/10/01 09:30:47;;;;;;;25.50;15.13;;;8.30;99.90;;;;;;4994045;28;20247;-63
2022/10/01 09:33:19;;;;;;;26.10;14.93;;;8.40;99.90;;;;;;4994240;28;20661;-63
2022/10/01 09:35:51;;;;;;;25.57;15.33;;;8.30;99.90;;;;;;4994036;28;20237;-64
2022/10/01 09:38:25;;;;;;;20.97;13.97;;;8.40;99.90;;;;;;4993965;28;20190;-62
2022/10/01 09:40:56;;;;;;;23.53;14.73;;;8.40;99.90;;;;;;4994057;28;20766;-64
2022/10/01 09:43:29;;;;;;;21.37;13.90;;;8.40;99.90;;;;;;4993889;28;20182;-64
2022/10/01 09:45:58;;;;;;;20.43;13.50;;;8.50;99.90;;;;;;4994011;28;20217;-64
2022/10/01 09:48:33;;;;;;;23.93;14.40;;;8.40;99.90;;;;;;4993935;28;20190;-65
2022/10/01 09:51:08;;;;;;;24.40;15.37;;;8.40;99.90;;;;;;4976447;28;20259;-63
2022/10/01 09:53:41;;;;;;;20.90;13.30;;;8.50;99.90;;;;;;4993908;28;20189;-64
2022/10/01 09:56:19;;;;;;;19.53;12.47;;;8.50;99.90;;;;;;4993690;28;20236;-64
2022/10/01 09:58:53;;;;;;;20.87;12.63;;;8.50;99.90;;;;;;4993691;28;20190;-63
2022/10/01 10:01:29;;;;;;;19.30;12.30;;;8.50;99.90;;;;;;4993112;28;20669;-63
2022/10/01 10:03:58;;;;;;;19.80;11.97;;;8.50;99.90;;;;;;4993647;28;20190;-63
2022/10/01 10:06:28;;;;;;;17.90;10.57;;;8.50;99.90;;;;;;4992781;28;20229;-63
2022/10/01 10:09:00;;;;;;;17.87;12.07;;;8.50;99.90;;;;;;4993552;28;20670;-63
2022/10/01 10:11:32;;;;;;;15.97;10.47;;;8.50;99.90;;;;;;4993645;28;20206;-63
2022/10/01 10:14:03;;;;;;;17.87;10.63;;;8.50;99.90;;;;;;4993548;28;20665;-63
2022/10/01 10:16:34;;;;;;;14.57;10.03;;;8.50;99.90;;;;;;4993266;28;20221;-63
2022/10/01 10:19:09;;;;;;;13.17;8.70;;;8.50;99.90;;;;;;4993317;28;20201;-63
2022/10/01 10:21:38;;;;;;;13.10;8.17;;;8.50;99.90;;;;;;4993367;28;20198;-64
2022/10/01 10:24:22;;;;;;;13.30;7.87;;;8.60;99.90;;;;;;4993023;28;20681;-63
2022/10/01 10:26:55;;;;;;;11.17;7.77;;;8.60;99.90;;;;;;4992322;28;20185;-64
2022/10/01 10:29:29;;;;;;;12.80;7.50;;;8.60;99.90;;;;;;4993111;28;20201;-64
2022/10/01 10:31:59;;;;;;;11.87;6.97;;;8.70;99.90;;;;;;4993085;28;20674;-64
2022/10/01 10:34:32;;;;;;;11.63;6.67;;;8.70;99.90;;;;;;4993097;28;20198;-64
2022/10/01 10:37:05;;;;;;;10.03;6.40;;;8.80;99.90;;;;;;4993071;28;20665;-63
2022/10/01 10:39:37;;;;;;;10.33;6.50;;;8.80;99.90;;;;;;4993092;28;20186;-63
2022/10/01 10:42:08;;;;;;;11.37;6.13;;;8.80;99.90;;;;;;4993014;28;20187;-63
2022/10/01 10:44:38;;;;;;;8.90;5.67;;;8.90;99.90;;;;;;4992949;28;20213;-63
2022/10/01 10:47:12;;;;;;;6.50;5.20;;;8.90;99.90;;;;;;4993080;28;20186;-63
2022/10/01 10:49:45;;;;;;;7.90;5.70;;;8.90;99.90;;;;;;4993064;28;20202;-63
2022/10/01 10:52:22;;;;;;;10.37;6.00;;;8.90;99.90;;;;;;4992953;28;20229;-65
2022/10/01 10:54:52;;;;;;;9.73;5.43;;;8.90;99.90;;;;;;4992871;28;20213;-63
2022/10/01 10:57:26;;;;;;;6.97;4.70;;;9.00;99.90;;;;;;4992908;28;20194;-63
2022/10/01 10:59:57;;;;;;;6.33;4.50;;;9.00;99.90;;;;;;4993016;28;20201;-63
2022/10/01 11:02:28;;;;;;;6.93;5.57;;;9.00;99.90;;;;;;4992989;28;20204;-63
2022/10/01 11:05:00;;;;;;;7.73;5.73;;;9.00;99.90;;;;;;4992900;28;20674;-63
2022/10/01 11:07:29;;;;;;;8.03;6.50;;;9.00;99.90;;;;;;4992852;28;20189;-64
2022/10/01 11:10:10;;;;;;;7.87;4.30;;;9.00;99.90;;;;;;4992783;28;20194;-64
2022/10/01 11:12:57;;;;;;;5.30;4.30;;;9.00;99.90;;;;;;4992719;28;20244;-65
2022/10/01 11:15:41;;;;;;;5.80;4.50;;;9.00;99.90;;;;;;4992720;28;20591;-63
2022/10/01 11:18:29;;;;;;;5.17;4.40;;;9.00;99.90;;;;;;4992385;28;20213;-64
2022/10/01 11:21:12;;;;;;;7.07;4.40;;;9.10;99.90;;;;;;4975431;28;20201;-65
2022/10/01 11:24:02;;;;;;;5.20;3.70;;;9.10;99.90;;;;;;4992540;28;20213;-63
2022/10/01 11:26:40;;;;;;;5.23;4.50;;;9.10;99.90;;;;;;4992633;28;20221;-63
2022/10/01 11:29:23;;;;;;;6.73;4.03;;;9.20;99.90;;;;;;4993008;28;20545;-63
2022/10/01 11:32:01;;;;;;;6.60;3.83;;;9.20;99.90;;;;;;4992526;28;20197;-65
2022/10/01 11:34:56;;;;;;;5.77;4.00;;;9.20;99.90;;;;;;4992486;28;20194;-65
2022/10/01 11:37:47;;;;;;;4.30;3.87;;;9.30;99.90;;;;;;4992525;28;20661;-63
2022/10/01 11:40:23;;;;;;;4.60;3.67;;;9.40;99.90;;;;;;4996243;28;20190;-64
2022/10/01 11:42:57;;;;;;;3.77;3.23;;;9.50;99.90;;;;;;4996197;28;20201;-65
2022/10/01 11:45:30;;;;;;;5.33;3.90;;;9.60;99.90;;;;;;4996065;28;20218;-64
2022/10/01 11:48:03;;;;;;;3.97;3.50;;;9.70;99.90;;;;;;4996193;28;20190;-64
2022/10/01 11:50:37;;;;;;;4.43;3.40;;;9.80;99.90;;;;;;4996291;28;20182;-65
2022/10/01 11:53:14;;;;;;;4.93;3.30;;;9.80;99.90;;;;;;4996087;28;20681;-64
2022/10/01 11:58:50;;;;;;;4.17;2.73;;;10.00;99.90;;;;;;4995943;28;20190;-64
2022/10/01 12:01:27;;;;;;;3.60;2.73;;;10.10;99.90;;;;;;4995858;28;20186;-64
2022/10/01 12:04:03;;;;;;;3.03;2.73;;;10.10;99.90;;;;;;4995895;28;20232;-65
2022/10/01 12:06:35;;;;;;;4.47;2.60;;;10.10;99.90;;;;;;4995771;28;20217;-64
2022/10/01 12:09:13;;;;;;;3.93;2.67;;;10.20;99.90;;;;;;4995674;28;20186;-64
2022/10/01 12:11:46;;;;;;;3.07;2.57;;;10.20;99.90;;;;;;4995699;28;20651;-64
2022/10/01 12:14:19;;;;;;;3.50;2.13;;;10.20;99.90;;;;;;4994908;28;20650;-63
2022/10/01 12:16:54;;;;;;;3.10;2.50;;;10.30;99.90;;;;;;4995754;28;20190;-66
2022/10/01 12:19:26;;;;;;;4.30;2.43;;;10.40;99.90;;;;;;4995326;28;20208;-64
2022/10/01 12:21:59;;;;;;;2.50;2.30;;;10.40;99.90;;;;;;4995548;28;20208;-63
2022/10/01 12:24:31;;;;;;;2.27;1.80;;;10.50;99.90;;;;;;4995434;28;20202;-64
2022/10/01 12:27:11;;;;;;;1.90;1.70;;;10.60;99.90;;;;;;4994578;28;20209;-64
2022/10/01 12:29:48;;;;;;;1.70;1.60;;;10.70;99.90;;;;;;4995328;28;20194;-64
2022/10/01 12:32:26;;;;;;;2.07;1.80;;;10.70;99.90;;;;;;4995281;28;20197;-64
2022/10/01 12:35:05;;;;;;;3.20;1.90;;;10.70;99.90;;;;;;4995134;28;20223;-64
2022/10/01 12:37:58;;;;;;;4.43;2.40;;;10.70;99.90;;;;;;4995260;28;20189;-64
2022/10/01 12:40:32;;;;;;;2.30;2.10;;;10.70;99.90;;;;;;4995069;28;20194;-63
2022/10/01 12:43:28;;;;;;;2.00;1.80;;;10.70;99.90;;;;;;4995047;28;20201;-64
2022/10/01 12:46:08;;;;;;;2.67;1.67;;;10.70;99.90;;;;;;4994972;28;20597;-64
2022/10/01 12:48:46;;;;;;;1.70;1.60;;;10.70;99.90;;;;;;4995077;28;20660;-65
2022/10/01 12:51:37;;;;;;;2.10;1.77;;;10.70;99.90;;;;;;4993440;28;20210;-62
2022/10/01 12:54:23;;;;;;;2.27;1.87;;;10.70;99.90;;;;;;4994843;28;20222;-64
2022/10/01 12:56:57;;;;;;;2.83;1.50;;;10.80;99.90;;;;;;4994383;28;20696;-63
2022/10/01 12:59:43;;;;;;;4.93;2.00;;;10.80;99.90;;;;;;4994789;28;20197;-64
2022/10/01 13:02:30;;;;;;;2.53;1.60;;;10.70;99.90;;;;;;4994689;28;20190;-63
2022/10/01 13:05:12;;;;;;;2.13;1.67;;;10.80;99.90;;;;;;4994724;28;20228;-64
2022/10/01 13:07:58;;;;;;;2.30;1.80;;;10.80;99.90;;;;;;4993788;28;20206;-64
2022/10/01 13:10:43;;;;;;;1.83;1.67;;;10.80;99.90;;;;;;4994627;28;20193;-65
2022/10/01 13:13:17;;;;;;;3.07;1.80;;;10.70;99.90;;;;;;4994379;28;20213;-64
2022/10/01 13:15:48;;;;;;;3.07;1.50;;;10.70;99.90;;;;;;4994564;28;20222;-65
2022/10/01 13:18:30;;;;;;;2.43;1.80;;;10.80;99.90;;;;;;4994685;28;20547;-65